Time;durP1;ratioP1;P1;durP2;ratioP2;P2;SDS_P1;SDS_P2;PMS_P1;PMS_P2;Temp;Humidity;BMP_temperature;BMP_pressure;BME280_temperature;BME280_humidity;BME280_pressure;Samples;Min_cycle;Max_cycle;Signal;HPM_P1;HPM_P2
2021/09/20 00:00:34;;;;;;;8.65;1.27;;;;;;;11.37;72.55;100533.19;1738666;82;21019;-57
2021/09/20 00:03:01;;;;;;;3.55;1.05;;;;;;;11.32;72.82;100537.43;1720640;82;21065;-56
2021/09/20 00:05:30;;;;;;;9.18;1.30;;;;;;;11.30;73.06;100537.08;1718036;83;21155;-57
2021/09/20 00:07:58;;;;;;;7.58;1.30;;;;;;;11.25;73.30;100543.11;1723671;83;21425;-57
2021/09/20 00:10:25;;;;;;;10.78;1.40;;;;;;;11.21;73.63;100534.78;1722220;83;21647;-58
2021/09/20 00:12:54;;;;;;;8.58;1.20;;;;;;;11.21;73.86;100534.78;1717238;83;21128;-57
2021/09/20 00:15:21;;;;;;;10.78;1.30;;;;;;;11.21;74.05;100533.44;1722888;83;21115;-56
2021/09/20 00:17:49;;;;;;;12.13;1.22;;;;;;;11.18;74.23;100525.92;1711081;83;21552;-56
2021/09/20 00:20:18;;;;;;;19.77;9.20;;;;;;;11.17;74.46;100530.00;1762821;80;21386;-57
2021/09/20 00:22:46;;;;;;;40.55;19.90;;;;;;;11.13;74.79;100535.95;1767049;80;21148;-57
2021/09/20 00:25:15;;;;;;;27.15;12.28;;;;;;;11.10;75.22;100531.20;1766063;80;20985;-57
2021/09/20 00:27:42;;;;;;;20.62;8.90;;;;;;;11.06;75.51;100536.30;1764331;80;21100;-57
2021/09/20 00:30:11;;;;;;;21.93;10.25;;;;;;;11.05;75.88;100532.72;1765245;80;21324;-57
2021/09/20 00:32:38;;;;;;;10.23;4.67;;;;;;;11.08;75.97;100529.91;1768983;80;21604;-56
2021/09/20 00:35:08;;;;;;;4.25;1.60;;;;;;;11.08;75.95;100532.59;1765979;80;21521;-57
2021/09/20 00:37:37;;;;;;;2.20;1.00;;;;;;;11.07;75.98;100530.84;1763218;80;21371;-57
2021/09/20 00:40:06;;;;;;;7.12;1.62;;;;;;;11.08;75.97;100539.78;1769572;80;21056;-57
2021/09/20 00:42:34;;;;;;;5.87;1.60;;;;;;;11.09;75.92;100535.67;1765809;80;21080;-54
2021/09/20 00:45:02;;;;;;;6.08;1.80;;;;;;;11.08;75.91;100537.09;1767688;80;21028;-54
2021/09/20 00:47:30;;;;;;;4.03;1.30;;;;;;;11.08;76.09;100535.76;1763854;80;21458;-54
2021/09/20 00:49:59;;;;;;;6.03;1.30;;;;;;;11.08;76.24;100529.91;1762748;80;21074;-55
2021/09/20 00:52:26;;;;;;;4.55;1.20;;;;;;;11.10;76.26;100541.45;1767454;80;21056;-54
2021/09/20 00:54:54;;;;;;;6.45;1.15;;;;;;;11.07;76.38;100536.20;1761865;80;21422;-57
2021/09/20 00:57:21;;;;;;;3.35;1.10;;;;;;;11.04;76.54;100541.70;1768011;80;21047;-57
2021/09/20 00:59:48;;;;;;;16.55;1.42;;;;;;;10.98;76.80;100533.91;1766416;80;21145;-57
2021/09/20 01:02:15;;;;;;;4.45;1.22;;;;;;;10.93;77.08;100527.84;1769204;80;21048;-57
2021/09/20 01:04:43;;;;;;;6.75;2.35;;;;;;;10.88;77.38;100531.58;1767687;80;20937;-56
2021/09/20 01:07:12;;;;;;;2.00;1.20;;;;;;;10.84;77.79;100525.94;1761656;80;21078;-56
2021/09/20 01:09:41;;;;;;;3.90;1.40;;;;;;;10.83;78.29;100527.33;1766501;80;21135;-57
2021/09/20 01:12:11;;;;;;;3.55;1.50;;;;;;;10.81;78.56;100528.75;1762078;80;21309;-59
2021/09/20 01:14:39;;;;;;;5.72;1.55;;;;;;;10.80;78.65;100528.34;1769209;80;21036;-55
2021/09/20 01:17:08;;;;;;;6.65;3.45;;;;;;;10.79;78.82;100518.55;1775534;80;20913;-54
2021/09/20 01:19:35;;;;;;;6.22;2.85;;;;;;;10.79;78.97;100521.23;1777235;80;21002;-54
2021/09/20 01:22:13;;;;;;;10.00;3.50;;;;;;;10.80;79.26;100521.63;1775823;80;20989;-54
2021/09/20 01:24:42;;;;;;;9.53;4.60;;;;;;;10.80;79.54;100526.11;1777340;80;21157;-55
2021/09/20 01:27:12;;;;;;;11.73;5.65;;;;;;;10.78;79.88;100523.51;1776978;80;21013;-53
2021/09/20 01:29:39;;;;;;;9.40;5.17;;;;;;;10.76;80.05;100532.08;1776335;80;21454;-53
2021/09/20 01:32:06;;;;;;;5.45;2.67;;;;;;;10.79;80.39;100528.39;1774468;80;21465;-54
2021/09/20 01:34:34;;;;;;;6.67;3.40;;;;;;;10.81;80.37;100530.09;1770250;80;21038;-53
2021/09/20 01:37:02;;;;;;;14.83;7.75;;;;;;;10.79;80.38;100529.73;1738962;82;21112;-53
2021/09/20 01:39:30;;;;;;;17.32;7.45;;;;;;;10.80;80.52;100531.02;1711241;83;21004;-53
2021/09/20 01:41:58;;;;;;;44.33;22.50;;;;;;;10.80;80.47;100525.66;1740628;82;21530;-54
2021/09/20 01:44:26;;;;;;;15.80;9.03;;;;;;;10.82;80.54;100531.83;1740599;81;21026;-53
2021/09/20 01:46:54;;;;;;;5.17;2.75;;;;;;;10.80;80.62;100525.66;1701263;83;21433;-54
2021/09/20 01:49:22;;;;;;;2.42;1.45;;;;;;;10.75;80.73;100525.83;1713499;83;21505;-54
2021/09/20 01:51:49;;;;;;;2.17;1.20;;;;;;;10.70;80.94;100534.53;1718494;82;21072;-53
2021/09/20 01:54:16;;;;;;;3.12;1.20;;;;;;;10.68;80.98;100532.83;1720778;81;21056;-54
2021/09/20 01:56:43;;;;;;;1.55;1.10;;;;;;;10.67;81.14;100540.47;1712340;83;20994;-53
2021/09/20 01:59:10;;;;;;;1.50;1.00;;;;;;;10.68;81.31;100539.53;1709719;82;21053;-54
2021/09/20 02:01:39;;;;;;;5.28;1.02;;;;;;;10.75;81.46;100533.02;1709510;83;21001;-54
2021/09/20 02:04:06;;;;;;;1.65;1.20;;;;;;;10.83;81.45;100529.55;1738142;81;21064;-53
2021/09/20 02:06:32;;;;;;;1.17;0.95;;;;;;;10.92;81.31;100532.34;1711074;83;21530;-56
2021/09/20 02:08:59;;;;;;;1.35;1.07;;;;;;;11.07;80.94;100542.91;1715699;82;21091;-54
2021/09/20 02:11:28;;;;;;;2.30;1.10;;;;;;;11.14;80.50;100536.35;1713598;83;20942;-54
2021/09/20 02:13:55;;;;;;;1.45;1.15;;;;;;;11.18;80.23;100537.11;1709618;83;21906;-57
2021/09/20 02:16:23;;;;;;;2.67;1.10;;;;;;;11.17;79.96;100534.92;1737102;82;21104;-56
2021/09/20 02:18:51;;;;;;;1.45;1.15;;;;;;;11.14;79.82;100540.38;1726783;81;21053;-54
2021/09/20 02:21:20;;;;;;;2.80;1.40;;;;;;;11.09;79.90;100546.41;1724251;82;21045;-55
2021/09/20 02:23:47;;;;;;;4.80;1.32;;;;;;;11.02;80.17;100540.89;1724663;82;21069;-54
2021/09/20 02:26:14;;;;;;;1.85;1.20;;;;;;;10.96;80.47;100546.03;1700157;83;21148;-54
2021/09/20 02:28:42;;;;;;;4.47;1.57;;;;;;;10.89;80.81;100542.71;1704016;83;21407;-54
2021/09/20 02:31:09;;;;;;;3.22;1.67;;;;;;;10.88;81.16;100547.67;1701867;83;21100;-54
2021/09/20 02:33:36;;;;;;;4.17;1.30;;;;;;;10.92;81.32;100540.84;1703172;83;21064;-54
2021/09/20 02:36:04;;;;;;;8.65;1.37;;;;;;;10.95;81.30;100539.41;1694586;83;21933;-54
2021/09/20 02:38:32;;;;;;;2.30;1.20;;;;;;;10.97;81.20;100536.19;1726997;82;21903;-54
2021/09/20 02:40:59;;;;;;;1.95;1.70;;;;;;;10.96;81.08;100535.78;1716909;83;21122;-55
2021/09/20 02:43:26;;;;;;;2.47;1.30;;;;;;;10.94;81.07;100537.63;1700606;83;21466;-54
2021/09/20 02:45:53;;;;;;;3.77;1.67;;;;;;;10.86;81.13;100541.50;1706077;83;21057;-54
2021/09/20 02:48:20;;;;;;;4.30;1.90;;;;;;;10.85;81.44;100534.88;1765959;80;21492;-54
2021/09/20 02:50:48;;;;;;;3.83;2.30;;;;;;;10.87;81.56;100531.17;1764473;80;21102;-54
2021/09/20 02:53:15;;;;;;;3.33;1.85;;;;;;;10.89;81.56;100537.83;1772170;80;21068;-54
2021/09/20 02:55:43;;;;;;;3.58;2.02;;;;;;;10.90;81.58;100544.95;1767325;80;21092;-54
2021/09/20 02:58:10;;;;;;;2.62;1.20;;;;;;;10.94;81.73;100539.86;1767017;80;22269;-54
2021/09/20 03:00:37;;;;;;;2.60;1.17;;;;;;;10.97;81.28;100540.22;1760259;80;21041;-54
2021/09/20 03:03:06;;;;;;;2.83;1.57;;;;;;;10.93;81.07;100550.18;1764365;80;22082;-55
2021/09/20 03:05:32;;;;;;;4.08;1.62;;;;;;;10.88;81.04;100546.33;1765583;80;20993;-53
2021/09/20 03:07:59;;;;;;;4.25;1.92;;;;;;;10.79;81.12;100545.81;1765564;80;21057;-54
2021/09/20 03:10:28;;;;;;;3.17;2.00;;;;;;;10.70;81.42;100543.02;1770928;80;22374;-53
2021/09/20 03:12:55;;;;;;;3.00;2.20;;;;;;;10.65;81.58;100546.36;1766648;80;21060;-56
2021/09/20 03:15:22;;;;;;;3.40;1.95;;;;;;;10.58;81.66;100551.08;1768725;80;21148;-54
2021/09/20 03:17:50;;;;;;;5.05;2.08;;;;;;;10.53;81.93;100549.05;1775539;80;21036;-54
2021/09/20 03:20:19;;;;;;;4.25;2.40;;;;;;;10.49;82.10;100550.95;1774143;80;20937;-54
2021/09/20 03:22:46;;;;;;;3.65;2.05;;;;;;;10.48;82.24;100553.23;1777399;80;21087;-54
2021/09/20 03:25:14;;;;;;;3.98;2.37;;;;;;;10.48;82.38;100550.55;1771444;80;21060;-53
2021/09/20 03:27:41;;;;;;;5.30;2.42;;;;;;;10.48;82.42;100554.57;1777686;79;21115;-55
2021/09/20 03:30:10;;;;;;;5.25;2.27;;;;;;;10.46;82.44;100553.76;1773925;80;21505;-55
2021/09/20 03:32:37;;;;;;;6.30;2.67;;;;;;;10.42;82.60;100562.85;1780272;80;21548;-54
2021/09/20 03:35:05;;;;;;;6.60;2.20;;;;;;;10.39;82.74;100568.30;1774234;80;21159;-54
2021/09/20 03:37:33;;;;;;;4.58;2.12;;;;;;;10.38;82.75;100570.57;1776781;80;21508;-54
2021/09/20 03:40:03;;;;;;;3.90;2.20;;;;;;;10.35;82.88;100570.20;1769536;80;21013;-54
2021/09/20 03:42:30;;;;;;;6.78;2.08;;;;;;;10.34;82.93;100570.28;1770249;80;21962;-55
2021/09/20 03:44:57;;;;;;;6.22;2.25;;;;;;;10.32;83.06;100564.52;1774474;80;20980;-54
2021/09/20 03:47:24;;;;;;;4.45;1.90;;;;;;;10.30;83.14;100563.70;1775772;80;21520;-55
2021/09/20 03:49:50;;;;;;;3.33;2.30;;;;;;;10.30;83.20;100561.02;1725913;82;21045;-55
2021/09/20 03:52:18;;;;;;;4.83;2.52;;;;;;;10.27;83.23;100562.45;1776763;80;21148;-54
2021/09/20 03:54:45;;;;;;;3.35;2.22;;;;;;;10.25;83.40;100564.31;1774088;80;21445;-54
2021/09/20 03:57:12;;;;;;;7.65;2.08;;;;;;;10.25;83.51;100575.03;1774296;80;21528;-54
2021/09/20 03:59:38;;;;;;;9.38;3.27;;;;;;;10.25;83.47;100576.36;1778891;80;21044;-54
2021/09/20 04:02:07;;;;;;;10.93;3.10;;;;;;;10.20;83.46;100575.67;1774026;80;21037;-55
2021/09/20 04:04:34;;;;;;;5.58;3.22;;;;;;;10.14;83.61;100578.58;1772782;80;21105;-54
2021/09/20 04:07:05;;;;;;;5.50;2.62;;;;;;;10.09;83.82;100573.86;1775118;80;22224;-57
2021/09/20 04:09:33;;;;;;;9.08;2.90;;;;;;;10.06;84.05;100581.97;1773469;80;21099;-53
2021/09/20 04:12:03;;;;;;;8.28;2.47;;;;;;;10.07;84.15;100583.75;1776340;80;21056;-53
2021/09/20 04:14:31;;;;;;;7.62;2.30;;;;;;;10.10;84.18;100589.00;1712434;83;21454;-53
2021/09/20 04:16:58;;;;;;;5.53;2.40;;;;;;;10.12;84.14;100583.98;1776290;80;21438;-54
2021/09/20 04:19:26;;;;;;;8.35;2.55;;;;;;;10.17;84.17;100592.75;1759921;80;21143;-54
2021/09/20 04:21:55;;;;;;;5.25;2.37;;;;;;;10.26;84.25;100592.00;1768108;80;21035;-55
2021/09/20 04:24:23;;;;;;;8.18;2.65;;;;;;;10.38;84.07;100593.34;1764460;79;21084;-54
2021/09/20 04:26:52;;;;;;;5.30;2.67;;;;;;;10.53;83.66;100604.00;1769356;80;21453;-54
2021/09/20 04:29:20;;;;;;;3.37;2.35;;;;;;;10.66;83.30;100597.25;1769555;80;20970;-54
2021/09/20 04:31:49;;;;;;;5.60;2.40;;;;;;;10.80;82.84;100600.75;1769584;80;20937;-54
2021/09/20 04:34:15;;;;;;;4.65;2.30;;;;;;;10.94;82.45;100609.59;1764113;80;21002;-54
2021/09/20 04:36:42;;;;;;;6.58;2.70;;;;;;;11.13;81.99;100611.56;1766053;80;21506;-56
2021/09/20 04:39:09;;;;;;;4.87;2.50;;;;;;;11.32;81.47;100618.40;1768082;80;21450;-54
2021/09/20 04:41:39;;;;;;;6.60;2.47;;;;;;;11.55;80.64;100613.91;1762235;80;21146;-54
2021/09/20 04:44:06;;;;;;;5.45;2.30;;;;;;;11.75;79.84;100609.92;1766610;80;21477;-55
2021/09/20 04:46:35;;;;;;;3.80;2.08;;;;;;;11.98;78.77;100604.03;1769499;80;21103;-54
2021/09/20 04:49:04;;;;;;;7.78;1.98;;;;;;;12.19;77.57;100609.44;1760876;80;21025;-54
2021/09/20 04:51:31;;;;;;;3.52;2.00;;;;;;;12.38;76.68;100612.20;1698451;83;21131;-54
2021/09/20 04:53:58;;;;;;;3.02;1.72;;;;;;;12.55;75.67;100616.81;1767939;80;21156;-54
2021/09/20 04:56:25;;;;;;;2.15;1.62;;;;;;;12.66;74.65;100608.70;1762482;80;22107;-57
2021/09/20 04:58:54;;;;;;;4.25;1.85;;;;;;;12.89;74.28;100617.07;1763941;80;21092;-58
2021/09/20 05:01:21;;;;;;;4.22;1.70;;;;;;;13.39;73.27;100626.83;1766984;80;21043;-57
2021/09/20 05:03:48;;;;;;;4.17;2.10;;;;;;;14.03;71.54;100628.13;1699640;83;21068;-58
2021/09/20 05:06:15;;;;;;;6.12;2.00;;;;;;;14.87;68.59;100615.66;1768230;80;21109;-57
2021/09/20 05:08:44;;;;;;;6.33;2.12;;;;;;;15.69;65.63;100625.48;1768810;80;20925;-55
2021/09/20 05:11:12;;;;;;;3.25;1.80;;;;;;;16.11;62.16;100635.23;1703937;82;21092;-54
2021/09/20 05:13:41;;;;;;;10.13;1.87;;;;;;;16.29;60.44;100617.89;1761346;80;21045;-56
2021/09/20 05:16:07;;;;;;;3.85;1.98;;;;;;;16.48;59.33;100641.12;1767845;80;21891;-54
2021/09/20 05:18:36;;;;;;;4.90;1.75;;;;;;;16.53;58.65;100630.88;1768902;80;21112;-55
2021/09/20 05:21:04;;;;;;;2.33;1.65;;;;;;;16.41;58.06;100639.73;1765410;80;21034;-54
2021/09/20 05:23:33;;;;;;;2.10;1.90;;;;;;;16.12;58.14;100639.19;1702294;83;21148;-54
2021/09/20 05:26:02;;;;;;;3.67;1.77;;;;;;;15.83;58.69;100647.67;1762713;80;21501;-54
2021/09/20 05:28:29;;;;;;;4.22;2.30;;;;;;;15.67;59.15;100643.63;1764969;80;21047;-55
2021/09/20 05:30:56;;;;;;;6.37;1.80;;;;;;;15.50;59.33;100654.06;1763495;80;21978;-55
2021/09/20 05:33:23;;;;;;;4.10;1.90;;;;;;;15.17;59.93;100650.02;1766711;80;21024;-54
2021/09/20 05:35:50;;;;;;;3.45;1.85;;;;;;;14.96;61.18;100643.97;1762448;80;21658;-54
2021/09/20 05:38:18;;;;;;;5.75;2.27;;;;;;;14.99;61.65;100645.64;1764483;80;21052;-55
2021/09/20 05:40:47;;;;;;;8.15;2.05;;;;;;;15.08;61.91;100650.52;1761529;80;21099;-55
2021/09/20 05:43:14;;;;;;;5.90;1.90;;;;;;;15.23;61.69;100651.97;1767520;80;21136;-55
2021/09/20 05:45:41;;;;;;;3.20;1.62;;;;;;;15.36;61.07;100647.61;1766095;80;21779;-55
2021/09/20 05:48:08;;;;;;;3.33;2.00;;;;;;;15.37;60.55;100646.67;1759146;80;21040;-55
2021/09/20 05:50:35;;;;;;;3.72;1.32;;;;;;;15.42;60.55;100645.92;1767706;80;21052;-55
2021/09/20 05:53:04;;;;;;;2.22;1.65;;;;;;;15.55;60.49;100643.85;1768194;80;21000;-54
2021/09/20 05:55:30;;;;;;;2.77;1.70;;;;;;;15.70;59.72;100645.67;1725128;82;21832;-55
2021/09/20 05:57:58;;;;;;;2.87;1.50;;;;;;;15.87;59.33;100649.23;1769044;80;21071;-53
2021/09/20 06:00:25;;;;;;;5.90;1.70;;;;;;;16.03;58.27;100650.09;1766164;80;21029;-54
2021/09/20 06:02:52;;;;;;;2.52;1.37;;;;;;;16.14;57.61;100653.98;1764803;80;21045;-55
2021/09/20 06:05:19;;;;;;;4.55;1.55;;;;;;;16.19;57.62;100658.63;1765871;80;21076;-54
2021/09/20 06:07:47;;;;;;;4.08;1.40;;;;;;;16.27;57.58;100659.05;1768105;80;21122;-54
2021/09/20 06:10:15;;;;;;;2.45;1.45;;;;;;;16.38;57.10;100656.16;1762046;80;21060;-54
2021/09/20 06:12:42;;;;;;;2.60;1.37;;;;;;;16.49;56.29;100657.74;1768124;80;21040;-54
2021/09/20 06:15:11;;;;;;;2.45;1.30;;;;;;;16.61;56.25;100660.17;1764923;80;21520;-56
2021/09/20 06:17:40;;;;;;;4.28;1.55;;;;;;;16.77;55.38;100660.08;1760847;80;20933;-55
2021/09/20 06:20:08;;;;;;;2.40;1.27;;;;;;;16.89;55.06;100667.41;1760582;80;21541;-55
2021/09/20 06:22:37;;;;;;;2.10;1.27;;;;;;;17.01;54.22;100661.73;1759625;80;21549;-54
2021/09/20 06:25:05;;;;;;;6.85;1.52;;;;;;;17.06;53.31;100664.16;1768388;80;20995;-54
2021/09/20 06:27:32;;;;;;;4.92;1.45;;;;;;;17.07;53.49;100653.70;1761639;80;21062;-56
2021/09/20 06:29:59;;;;;;;7.75;1.50;;;;;;;17.18;53.49;100662.03;1757051;80;21441;-55
2021/09/20 06:32:26;;;;;;;3.12;1.30;;;;;;;17.33;53.45;100664.70;1762433;80;21137;-55
2021/09/20 06:34:54;;;;;;;2.72;1.40;;;;;;;17.52;52.97;100674.34;1762587;80;21122;-54
2021/09/20 06:37:20;;;;;;;8.43;1.50;;;;;;;17.65;52.17;100664.44;1763018;80;21045;-54
2021/09/20 06:39:48;;;;;;;8.90;1.50;;;;;;;17.76;52.23;100666.44;1755047;80;21480;-54
2021/09/20 06:42:15;;;;;;;5.17;1.80;;;;;;;18.06;52.07;100673.50;1757975;80;21045;-55
2021/09/20 06:44:42;;;;;;;4.28;1.75;;;;;;;18.75;51.11;100665.11;1755495;80;21606;-54
2021/09/20 06:47:09;;;;;;;3.00;1.20;;;;;;;19.31;49.27;100662.53;1753986;80;21024;-55
2021/09/20 06:49:36;;;;;;;3.12;1.67;;;;;;;19.52;48.23;100667.84;1756804;80;21727;-55
2021/09/20 06:52:05;;;;;;;1.80;1.50;;;;;;;19.55;47.79;100670.33;1754780;80;21015;-54
2021/09/20 06:54:32;;;;;;;2.47;1.40;;;;;;;19.45;47.50;100672.38;1760918;80;21035;-58
2021/09/20 06:56:59;;;;;;;1.42;1.15;;;;;;;19.31;47.17;100665.72;1756518;80;21516;-57
2021/09/20 06:59:26;;;;;;;1.60;1.50;;;;;;;19.16;47.21;100673.16;1760252;80;21075;-57
2021/09/20 07:01:54;;;;;;;2.75;1.40;;;;;;;18.98;47.13;100669.89;1760215;80;21090;-58
2021/09/20 07:04:21;;;;;;;3.30;1.52;;;;;;;18.72;47.08;100672.63;1757693;80;21543;-57
2021/09/20 07:06:48;;;;;;;1.92;1.35;;;;;;;18.47;47.95;100674.36;1761208;80;21065;-58
2021/09/20 07:09:15;;;;;;;2.45;1.37;;;;;;;18.49;48.13;100671.05;1695909;83;21279;-57
2021/09/20 07:11:43;;;;;;;6.97;1.47;;;;;;;18.54;47.93;100666.63;1763831;80;21100;-54
2021/09/20 07:14:10;;;;;;;18.15;10.95;;;;;;;18.46;47.65;100675.34;1767100;80;21552;-54
2021/09/20 07:16:38;;;;;;;5.25;3.87;;;;;;;18.22;47.92;100667.03;1752739;80;21051;-54
2021/09/20 07:19:06;;;;;;;3.85;2.62;;;;;;;17.98;48.80;100668.55;1748327;80;22329;-55
2021/09/20 07:21:34;;;;;;;5.12;2.10;;;;;;;17.83;49.26;100666.91;1710359;82;21191;-55
2021/09/20 07:24:01;;;;;;;6.33;2.50;;;;;;;17.69;49.90;100660.55;1748470;81;21286;-54
2021/09/20 07:26:30;;;;;;;9.68;5.53;;;;;;;17.64;50.15;100662.70;1744893;81;21588;-55
2021/09/20 07:28:57;;;;;;;6.62;2.20;;;;;;;17.63;50.22;100662.32;1742197;81;21101;-55
2021/09/20 07:31:25;;;;;;;19.12;11.00;;;;;;;17.62;49.92;100666.00;1742109;81;21372;-55
2021/09/20 07:33:51;;;;;;;7.53;3.52;;;;;;;17.56;49.90;100658.25;1750802;80;21133;-55
2021/09/20 07:36:18;;;;;;;23.57;16.20;;;;;;;17.52;50.09;100663.50;1739494;81;21087;-55
2021/09/20 07:38:46;;;;;;;9.93;2.83;;;;;;;17.47;50.37;100659.25;1748113;81;21004;-55
2021/09/20 07:41:13;;;;;;;4.30;2.60;;;;;;;17.33;50.43;100653.86;1748078;81;21029;-55
2021/09/20 07:43:44;;;;;;;2.47;1.30;;;;;;;17.28;50.89;100653.30;1747626;81;21411;-55
2021/09/20 07:46:09;;;;;;;21.10;12.98;;;;;;;17.28;50.61;100666.84;1742145;81;21156;-55
2021/09/20 07:48:36;;;;;;;13.32;4.37;;;;;;;17.25;50.80;100653.50;1753835;81;21387;-54
2021/09/20 07:51:04;;;;;;;6.42;2.50;;;;;;;17.29;51.10;100665.41;1754528;81;21057;-54
2021/09/20 07:53:31;;;;;;;10.30;5.78;;;;;;;17.36;50.91;100666.35;1753927;81;21116;-54
2021/09/20 07:55:58;;;;;;;4.60;2.87;;;;;;;17.41;50.69;100661.02;1751703;80;21029;-56
2021/09/20 07:58:24;;;;;;;9.65;2.02;;;;;;;17.41;50.52;100652.89;1747324;80;20996;-55
2021/09/20 08:00:51;;;;;;;53.68;31.35;;;;;;;17.41;50.40;100659.66;1754188;81;21111;-54
2021/09/20 08:03:18;;;;;;;32.40;18.52;;;;;;;17.40;50.70;100656.58;1737345;81;21096;-58
2021/09/20 08:05:46;;;;;;;17.57;10.90;;;;;;;17.44;51.11;100656.75;1751971;81;21055;-55
2021/09/20 08:08:13;;;;;;;51.70;32.30;;;;;;;17.50;50.89;100659.55;1751879;81;21064;-56
2021/09/20 08:10:40;;;;;;;23.92;12.40;;;;;;;17.52;50.36;100651.30;1746066;81;21473;-55
2021/09/20 08:13:08;;;;;;;22.15;12.45;;;;;;;17.51;50.70;100649.56;1754515;80;21018;-53
2021/09/20 08:15:37;;;;;;;12.37;6.20;;;;;;;17.55;50.04;100656.05;1746249;80;21061;-54
2021/09/20 08:18:06;;;;;;;5.97;3.50;;;;;;;17.61;49.97;100652.06;1751362;81;21033;-57
2021/09/20 08:20:35;;;;;;;5.10;2.20;;;;;;;17.75;49.97;100650.64;1751828;80;21125;-57
2021/09/20 08:23:02;;;;;;;1.42;1.27;;;;;;;17.84;49.78;100652.37;1745509;80;21924;-57
2021/09/20 08:25:31;;;;;;;2.05;1.20;;;;;;;17.89;49.32;100653.77;1745812;80;21155;-57
2021/09/20 08:27:58;;;;;;;2.08;1.50;;;;;;;17.90;48.88;100651.95;1750737;80;21003;-55
2021/09/20 08:30:26;;;;;;;3.05;1.20;;;;;;;17.89;48.91;100650.20;1747802;80;21848;-56
2021/09/20 08:32:54;;;;;;;2.52;1.42;;;;;;;17.97;48.91;100655.97;1751698;80;21497;-57
2021/09/20 08:35:23;;;;;;;4.20;1.47;;;;;;;18.06;48.67;100642.80;1750375;80;21100;-57
2021/09/20 08:37:50;;;;;;;2.75;1.25;;;;;;;18.13;48.39;100649.54;1745628;80;21065;-57
2021/09/20 08:40:17;;;;;;;3.60;1.45;;;;;;;18.27;47.94;100654.90;1751654;80;21521;-56
2021/09/20 08:42:45;;;;;;;105.60;63.15;;;;;;;18.37;48.01;100657.84;1739696;80;21399;-57
2021/09/20 08:45:27;;;;;;;41.83;26.20;;;;;;;18.44;47.98;100652.36;1744532;80;21041;-57
2021/09/20 08:47:56;;;;;;;9.23;5.20;;;;;;;18.45;48.15;100643.71;1746190;80;21105;-56
2021/09/20 08:50:58;;;;;;;74.87;46.48;;;;;;;18.52;48.25;100653.19;1745755;80;21068;-57
2021/09/20 08:53:25;;;;;;;24.05;13.05;;;;;;;18.61;47.03;100652.52;1742786;80;21121;-57
2021/09/20 08:55:51;;;;;;;9.33;3.60;;;;;;;18.53;47.52;100664.89;1742310;80;21060;-57
2021/09/20 08:58:18;;;;;;;7.65;2.62;;;;;;;18.48;47.42;100654.37;1745555;80;21121;-55
2021/09/20 09:00:45;;;;;;;9.45;2.10;;;;;;;18.54;47.01;100648.52;1744005;80;21680;-57
2021/09/20 09:03:21;;;;;;;9.50;1.70;;;;;;;18.68;46.85;100657.50;1741979;80;21562;-58
2021/09/20 09:05:50;;;;;;;4.67;1.57;;;;;;;18.82;46.77;100660.63;1745117;80;21096;-56
2021/09/20 09:11:07;;;;;;;1.65;1.40;;;;;;;19.14;46.20;100656.98;1739761;80;21737;-56
2021/09/20 09:13:42;;;;;;;3.20;1.20;;;;;;;19.17;45.16;100647.71;1747215;80;21717;-57
2021/09/20 09:16:26;;;;;;;3.77;1.60;;;;;;;19.14;45.12;100660.17;1737634;80;21420;-57
2021/09/20 09:19:02;;;;;;;28.20;18.70;;;;;;;19.11;45.52;100655.81;1739443;80;21208;-56
2021/09/20 09:21:31;;;;;;;10.63;5.25;;;;;;;19.06;45.43;100668.88;1757445;79;21052;-56
2021/09/20 09:26:56;;;;;;;3.70;1.82;;;;;;;19.09;46.22;100667.28;1752150;80;21704;-56
2021/09/20 09:29:23;;;;;;;67.05;42.43;;;;;;;19.30;45.52;100658.55;1757908;80;21056;-57
2021/09/20 09:31:54;;;;;;;19.67;8.13;;;;;;;19.43;44.74;100655.31;1763594;80;21567;-57
2021/09/20 09:34:27;;;;;;;8.55;3.35;;;;;;;19.43;44.65;100658.03;1762181;80;20890;-57
2021/09/20 09:43:02;;;;;;;5.25;1.42;;;;;;;19.43;44.33;100647.64;1752860;80;20986;-56
2021/09/20 09:45:44;;;;;;;2.65;1.30;;;;;;;19.44;44.05;100640.73;1769628;80;21505;-57
2021/09/20 09:48:15;;;;;;;3.22;2.02;;;;;;;19.40;44.07;100643.31;1763635;80;21107;-57
2021/09/20 09:50:51;;;;;;;21.60;11.15;;;;;;;19.40;43.60;100632.44;1763982;80;21039;-58
2021/09/20 09:53:35;;;;;;;11.20;5.95;;;;;;;19.40;43.34;100649.23;1751914;80;21262;-56
2021/09/20 09:56:35;;;;;;;5.78;1.82;;;;;;;19.36;43.90;100654.05;1753961;80;21523;-56
2021/09/20 09:59:04;;;;;;;2.40;1.20;;;;;;;19.35;43.19;100648.23;1756545;80;21056;-57
2021/09/20 10:01:35;;;;;;;2.08;1.20;;;;;;;19.21;43.18;100651.09;1766030;80;21084;-58
2021/09/20 10:06:47;;;;;;;2.55;1.15;;;;;;;19.04;43.95;100650.45;1784396;78;22690;-57
2021/09/20 10:09:22;;;;;;;2.77;1.70;;;;;;;18.94;44.28;100653.45;1754517;80;21040;-57
2021/09/20 10:11:49;;;;;;;4.53;1.80;;;;;;;18.89;44.51;100660.05;1747490;80;21261;-54
2021/09/20 10:14:19;;;;;;;4.95;3.20;;;;;;;18.81;44.66;100652.95;1768720;80;21103;-55
2021/09/20 10:16:48;;;;;;;65.85;44.77;;;;;;;18.73;44.98;100643.14;1765682;79;20921;-54
2021/09/20 10:19:17;;;;;;;67.75;42.35;;;;;;;18.61;45.67;100660.66;1768118;80;21403;-53
2021/09/20 10:21:45;;;;;;;45.63;30.40;;;;;;;18.52;45.89;100640.97;1766571;80;20996;-54
2021/09/20 10:24:17;;;;;;;12.90;8.15;;;;;;;18.45;46.49;100639.64;1773657;79;20921;-55
2021/09/20 10:26:46;;;;;;;6.28;3.25;;;;;;;18.49;46.47;100637.59;1773856;80;20950;-54
2021/09/20 10:29:16;;;;;;;2.45;1.98;;;;;;;18.56;46.38;100629.38;1758739;80;21024;-54
2021/09/20 10:31:43;;;;;;;3.83;1.52;;;;;;;18.60;46.41;100634.49;1768213;80;21084;-54
2021/09/20 10:34:24;;;;;;;2.90;1.42;;;;;;;18.60;46.54;100629.06;1770827;80;21577;-55
2021/09/20 10:37:12;;;;;;;3.90;1.82;;;;;;;18.65;46.06;100622.43;1773117;80;21438;-54
2021/09/20 10:40:06;;;;;;;72.25;43.83;;;;;;;18.61;46.22;100621.30;1763287;80;21072;-54
2021/09/20 10:42:48;;;;;;;12.85;6.47;;;;;;;18.65;47.00;100625.14;1767362;80;21487;-54
2021/09/20 10:45:43;;;;;;;4.35;2.60;;;;;;;18.74;46.97;100617.21;1759869;80;21071;-55
2021/09/20 10:48:29;;;;;;;6.17;2.00;;;;;;;18.84;46.25;100630.15;1764711;80;21453;-54
2021/09/20 10:51:21;;;;;;;3.60;1.87;;;;;;;18.90;46.04;100624.27;1770624;80;21489;-54
2021/09/20 10:53:51;;;;;;;5.83;1.82;;;;;;;19.03;46.07;100625.16;1766495;80;21535;-54
2021/09/20 10:56:21;;;;;;;5.45;1.85;;;;;;;19.24;45.67;100629.12;1724773;81;21087;-54
2021/09/20 10:58:51;;;;;;;2.85;1.92;;;;;;;19.38;45.37;100636.24;1769336;80;21045;-55
2021/09/20 11:01:30;;;;;;;3.85;1.60;;;;;;;19.47;45.36;100636.43;1767193;79;21066;-58
2021/09/20 11:04:02;;;;;;;2.72;2.08;;;;;;;19.52;44.78;100629.77;1764615;79;21146;-57
2021/09/20 11:06:31;;;;;;;23.20;4.22;;;;;;;19.54;44.71;100625.97;1763248;80;21053;-55
2021/09/20 11:17:47;;;;;;;4.37;2.10;;;;;;;19.58;44.75;100626.62;1761008;80;21698;-56
2021/09/20 11:23:49;;;;;;;5.70;2.77;;;;;;;19.52;44.46;100620.25;1707271;82;21059;-56
2021/09/20 11:26:19;;;;;;;7.15;3.98;;;;;;;19.36;44.27;100626.86;1772406;80;21100;-57
2021/09/20 11:31:17;;;;;;;10.23;3.00;;;;;;;19.23;45.27;100612.44;1815571;78;21714;-55
2021/09/20 11:33:48;;;;;;;9.43;3.33;;;;;;;19.23;44.98;100613.80;1782211;79;21002;-54
2021/09/20 11:38:44;;;;;;;23.38;13.65;;;;;;;19.14;44.89;100615.34;1774897;80;20989;-56
2021/09/20 11:41:23;;;;;;;6.58;3.95;;;;;;;19.06;45.40;100599.59;1775275;80;21760;-57
2021/09/20 11:43:52;;;;;;;14.58;9.10;;;;;;;18.99;45.28;100602.39;1775939;79;20949;-56
2021/09/20 11:46:41;;;;;;;6.28;3.75;;;;;;;18.95;45.46;100602.21;1769278;79;21071;-56
2021/09/20 11:49:12;;;;;;;12.47;3.62;;;;;;;18.90;45.94;100593.91;1765539;79;22255;-57
2021/09/20 11:52:04;;;;;;;110.60;67.15;;;;;;;18.95;45.99;100588.63;1778399;79;20981;-54
2021/09/20 11:54:38;;;;;;;20.00;11.18;;;;;;;19.06;45.94;100612.33;1777164;80;21064;-55
2021/09/20 11:57:23;;;;;;;8.18;3.17;;;;;;;19.08;45.45;100600.34;1769511;79;21133;-56
2021/09/20 12:00:07;;;;;;;8.93;2.27;;;;;;;19.04;45.33;100596.13;1775126;79;22280;-56
2021/09/20 12:02:53;;;;;;;6.17;2.40;;;;;;;18.94;45.49;100601.33;1779664;79;21698;-54